sensor_id;sensor_type;location;lat;lon;timestamp;P1;durP1;ratioP1;P2;durP2;ratioP2
48006;SDS011;33771;48.180;11.400;2022-07-19T00:02:11;6.78;;;2.22;;
48006;SDS011;33771;48.180;11.400;2022-07-19T00:04:37;4.75;;;2.40;;
48006;SDS011;33771;48.180;11.400;2022-07-19T00:07:03;5.18;;;2.30;;
48006;SDS011;33771;48.180;11.400;2022-07-19T00:09:28;4.72;;;2.33;;
48006;SDS011;33771;48.180;11.400;2022-07-19T00:11:55;4.13;;;2.50;;
48006;SDS011;33771;48.180;11.400;2022-07-19T00:14:21;4.15;;;2.45;;
48006;SDS011;33771;48.180;11.400;2022-07-19T00:16:47;6.88;;;2.47;;
48006;SDS011;33771;48.180;11.400;2022-07-19T00:19:13;5.22;;;2.70;;
48006;SDS011;33771;48.180;11.400;2022-07-19T00:21:39;8.32;;;2.25;;
48006;SDS011;33771;48.180;11.400;2022-07-19T00:24:04;5.25;;;2.20;;
48006;SDS011;33771;48.180;11.400;2022-07-19T00:26:30;4.00;;;2.42;;
48006;SDS011;33771;48.180;11.400;2022-07-19T00:28:56;5.22;;;2.60;;
48006;SDS011;33771;48.180;11.400;2022-07-19T00:31:22;4.40;;;2.13;;
48006;SDS011;33771;48.180;11.400;2022-07-19T00:33:48;7.18;;;2.42;;
48006;SDS011;33771;48.180;11.400;2022-07-19T00:36:14;4.80;;;2.10;;
48006;SDS011;33771;48.180;11.400;2022-07-19T00:38:40;3.83;;;2.50;;
48006;SDS011;33771;48.180;11.400;2022-07-19T00:41:06;5.05;;;2.50;;
48006;SDS011;33771;48.180;11.400;2022-07-19T00:43:31;6.60;;;3.00;;
48006;SDS011;33771;48.180;11.400;2022-07-19T00:45:57;5.00;;;3.33;;
48006;SDS011;33771;48.180;11.400;2022-07-19T00:48:23;6.20;;;3.75;;
48006;SDS011;33771;48.180;11.400;2022-07-19T00:50:49;5.68;;;3.55;;
48006;SDS011;33771;48.180;11.400;2022-07-19T00:53:15;4.25;;;2.88;;
48006;SDS011;33771;48.180;11.400;2022-07-19T00:55:41;4.85;;;2.40;;
48006;SDS011;33771;48.180;11.400;2022-07-19T00:58:09;4.65;;;2.88;;
48006;SDS011;33771;48.180;11.400;2022-07-19T01:00:38;4.75;;;2.25;;
48006;SDS011;33771;48.180;11.400;2022-07-19T01:03:05;6.57;;;2.33;;
48006;SDS011;33771;48.180;11.400;2022-07-19T01:05:33;5.32;;;2.53;;
48006;SDS011;33771;48.180;11.400;2022-07-19T01:07:58;3.58;;;2.72;;
48006;SDS011;33771;48.180;11.400;2022-07-19T01:10:24;4.28;;;2.38;;
48006;SDS011;33771;48.180;11.400;2022-07-19T01:12:52;6.32;;;3.38;;
48006;SDS011;33771;48.180;11.400;2022-07-19T01:15:19;4.40;;;2.97;;
48006;SDS011;33771;48.180;11.400;2022-07-19T01:17:46;3.78;;;2.25;;
48006;SDS011;33771;48.180;11.400;2022-07-19T01:20:12;3.70;;;2.38;;
48006;SDS011;33771;48.180;11.400;2022-07-19T01:22:39;5.07;;;2.83;;
48006;SDS011;33771;48.180;11.400;2022-07-19T01:25:06;4.95;;;2.70;;
48006;SDS011;33771;48.180;11.400;2022-07-19T01:27:37;4.13;;;2.40;;
48006;SDS011;33771;48.180;11.400;2022-07-19T01:30:09;3.90;;;2.78;;
48006;SDS011;33771;48.180;11.400;2022-07-19T01:32:42;5.32;;;2.53;;
48006;SDS011;33771;48.180;11.400;2022-07-19T01:35:08;3.53;;;2.33;;
48006;SDS011;33771;48.180;11.400;2022-07-19T01:37:34;4.65;;;2.70;;
48006;SDS011;33771;48.180;11.400;2022-07-19T01:40:01;6.53;;;2.80;;
48006;SDS011;33771;48.180;11.400;2022-07-19T01:42:28;4.35;;;2.50;;
48006;SDS011;33771;48.180;11.400;2022-07-19T01:44:53;4.13;;;2.70;;
48006;SDS011;33771;48.180;11.400;2022-07-19T01:47:19;3.90;;;2.33;;
48006;SDS011;33771;48.180;11.400;2022-07-19T01:49:44;4.80;;;2.47;;
48006;SDS011;33771;48.180;11.400;2022-07-19T01:52:10;4.30;;;2.60;;
48006;SDS011;33771;48.180;11.400;2022-07-19T01:54:35;5.85;;;2.60;;
48006;SDS011;33771;48.180;11.400;2022-07-19T01:57:01;5.00;;;2.67;;
48006;SDS011;33771;48.180;11.400;2022-07-19T01:59:27;3.85;;;2.35;;
48006;SDS011;33771;48.180;11.400;2022-07-19T02:01:52;5.35;;;2.60;;
48006;SDS011;33771;48.180;11.400;2022-07-19T02:04:18;7.25;;;3.30;;
48006;SDS011;33771;48.180;11.400;2022-07-19T02:06:43;5.32;;;2.63;;
48006;SDS011;33771;48.180;11.400;2022-07-19T02:09:09;3.65;;;2.40;;
48006;SDS011;33771;48.180;11.400;2022-07-19T02:11:34;5.30;;;2.95;;
48006;SDS011;33771;48.180;11.400;2022-07-19T02:14:00;4.38;;;2.83;;
48006;SDS011;33771;48.180;11.400;2022-07-19T02:16:27;7.97;;;3.22;;
48006;SDS011;33771;48.180;11.400;2022-07-19T02:18:53;3.83;;;2.50;;
48006;SDS011;33771;48.180;11.400;2022-07-19T02:21:18;3.58;;;2.60;;
48006;SDS011;33771;48.180;11.400;2022-07-19T02:23:44;5.32;;;2.65;;
48006;SDS011;33771;48.180;11.400;2022-07-19T02:26:10;4.50;;;2.92;;
48006;SDS011;33771;48.180;11.400;2022-07-19T02:28:35;4.70;;;2.50;;
48006;SDS011;33771;48.180;11.400;2022-07-19T02:31:01;5.25;;;2.70;;
48006;SDS011;33771;48.180;11.400;2022-07-19T02:33:26;6.97;;;3.15;;
48006;SDS011;33771;48.180;11.400;2022-07-19T02:35:52;4.93;;;2.53;;
48006;SDS011;33771;48.180;11.400;2022-07-19T02:38:17;4.25;;;2.60;;
48006;SDS011;33771;48.180;11.400;2022-07-19T02:40:43;5.72;;;2.80;;
48006;SDS011;33771;48.180;11.400;2022-07-19T02:43:08;6.28;;;3.20;;
48006;SDS011;33771;48.180;11.400;2022-07-19T02:45:34;4.85;;;3.05;;
48006;SDS011;33771;48.180;11.400;2022-07-19T02:48:00;8.15;;;2.88;;
48006;SDS011;33771;48.180;11.400;2022-07-19T02:50:27;7.22;;;2.97;;
48006;SDS011;33771;48.180;11.400;2022-07-19T02:52:53;4.78;;;2.92;;
48006;SDS011;33771;48.180;11.400;2022-07-19T02:55:18;5.30;;;2.90;;
48006;SDS011;33771;48.180;11.400;2022-07-19T02:57:44;5.85;;;3.05;;
48006;SDS011;33771;48.180;11.400;2022-07-19T03:00:09;6.13;;;3.25;;
48006;SDS011;33771;48.180;11.400;2022-07-19T03:02:36;5.70;;;3.00;;
48006;SDS011;33771;48.180;11.400;2022-07-19T03:05:01;5.80;;;3.38;;
48006;SDS011;33771;48.180;11.400;2022-07-19T03:07:27;9.77;;;3.15;;
48006;SDS011;33771;48.180;11.400;2022-07-19T03:09:53;7.97;;;3.30;;
48006;SDS011;33771;48.180;11.400;2022-07-19T03:12:18;4.80;;;3.03;;
48006;SDS011;33771;48.180;11.400;2022-07-19T03:14:44;4.30;;;2.65;;
48006;SDS011;33771;48.180;11.400;2022-07-19T03:17:09;5.18;;;2.78;;
48006;SDS011;33771;48.180;11.400;2022-07-19T03:19:35;9.00;;;3.20;;
48006;SDS011;33771;48.180;11.400;2022-07-19T03:22:00;8.18;;;2.90;;
48006;SDS011;33771;48.180;11.400;2022-07-19T03:24:26;6.63;;;3.47;;
48006;SDS011;33771;48.180;11.400;2022-07-19T03:26:52;7.45;;;3.45;;
48006;SDS011;33771;48.180;11.400;2022-07-19T03:29:17;10.32;;;3.30;;
48006;SDS011;33771;48.180;11.400;2022-07-19T03:31:43;9.23;;;3.40;;
48006;SDS011;33771;48.180;11.400;2022-07-19T03:34:08;11.95;;;4.07;;
48006;SDS011;33771;48.180;11.400;2022-07-19T03:36:34;11.23;;;4.05;;
48006;SDS011;33771;48.180;11.400;2022-07-19T03:38:59;9.27;;;3.30;;
48006;SDS011;33771;48.180;11.400;2022-07-19T03:41:25;8.20;;;3.50;;
48006;SDS011;33771;48.180;11.400;2022-07-19T03:43:50;10.45;;;4.03;;
48006;SDS011;33771;48.180;11.400;2022-07-19T03:46:16;11.95;;;3.78;;
48006;SDS011;33771;48.180;11.400;2022-07-19T03:48:44;15.82;;;3.88;;
48006;SDS011;33771;48.180;11.400;2022-07-19T03:51:09;10.30;;;3.38;;
48006;SDS011;33771;48.180;11.400;2022-07-19T03:53:36;9.82;;;3.85;;
48006;SDS011;33771;48.180;11.400;2022-07-19T03:56:01;11.55;;;3.70;;
48006;SDS011;33771;48.180;11.400;2022-07-19T03:58:27;10.48;;;4.05;;
48006;SDS011;33771;48.180;11.400;2022-07-19T04:00:53;6.47;;;3.40;;
48006;SDS011;33771;48.180;11.400;2022-07-19T04:03:19;13.85;;;3.58;;
48006;SDS011;33771;48.180;11.400;2022-07-19T04:05:44;10.45;;;3.55;;
48006;SDS011;33771;48.180;11.400;2022-07-19T04:08:10;8.40;;;3.40;;
48006;SDS011;33771;48.180;11.400;2022-07-19T04:10:35;7.95;;;3.25;;
48006;SDS011;33771;48.180;11.400;2022-07-19T04:13:01;5.95;;;3.38;;
48006;SDS011;33771;48.180;11.400;2022-07-19T04:15:27;10.25;;;4.03;;
48006;SDS011;33771;48.180;11.400;2022-07-19T04:17:52;14.52;;;3.97;;
48006;SDS011;33771;48.180;11.400;2022-07-19T04:20:18;10.98;;;3.72;;
48006;SDS011;33771;48.180;11.400;2022-07-19T04:22:43;9.95;;;3.60;;
48006;SDS011;33771;48.180;11.400;2022-07-19T04:25:09;6.90;;;3.30;;
48006;SDS011;33771;48.180;11.400;2022-07-19T04:27:38;5.93;;;3.63;;
48006;SDS011;33771;48.180;11.400;2022-07-19T04:30:03;6.03;;;3.40;;
48006;SDS011;33771;48.180;11.400;2022-07-19T04:32:30;6.90;;;3.42;;
48006;SDS011;33771;48.180;11.400;2022-07-19T04:34:56;7.13;;;3.40;;
48006;SDS011;33771;48.180;11.400;2022-07-19T04:37:22;7.97;;;3.33;;
48006;SDS011;33771;48.180;11.400;2022-07-19T04:39:48;7.53;;;3.80;;
48006;SDS011;33771;48.180;11.400;2022-07-19T04:42:13;11.38;;;3.63;;
48006;SDS011;33771;48.180;11.400;2022-07-19T04:44:39;8.32;;;4.03;;
48006;SDS011;33771;48.180;11.400;2022-07-19T04:47:05;6.50;;;3.80;;
48006;SDS011;33771;48.180;11.400;2022-07-19T04:49:30;7.20;;;3.47;;
48006;SDS011;33771;48.180;11.400;2022-07-19T04:51:56;7.47;;;3.55;;
48006;SDS011;33771;48.180;11.400;2022-07-19T04:54:21;9.73;;;4.07;;
48006;SDS011;33771;48.180;11.400;2022-07-19T04:56:47;8.52;;;3.47;;
48006;SDS011;33771;48.180;11.400;2022-07-19T04:59:13;9.93;;;4.03;;
48006;SDS011;33771;48.180;11.400;2022-07-19T05:01:38;7.97;;;3.75;;
48006;SDS011;33771;48.180;11.400;2022-07-19T05:04:04;12.13;;;3.88;;
48006;SDS011;33771;48.180;11.400;2022-07-19T05:06:29;12.48;;;4.22;;
48006;SDS011;33771;48.180;11.400;2022-07-19T05:08:55;11.30;;;4.03;;
48006;SDS011;33771;48.180;11.400;2022-07-19T05:11:21;12.88;;;4.03;;
48006;SDS011;33771;48.180;11.400;2022-07-19T05:13:47;12.32;;;4.65;;
48006;SDS011;33771;48.180;11.400;2022-07-19T05:16:13;7.00;;;4.20;;
48006;SDS011;33771;48.180;11.400;2022-07-19T05:18:39;9.32;;;5.28;;
48006;SDS011;33771;48.180;11.400;2022-07-19T05:21:04;9.75;;;5.20;;
48006;SDS011;33771;48.180;11.400;2022-07-19T05:23:30;11.30;;;5.57;;
48006;SDS011;33771;48.180;11.400;2022-07-19T05:25:56;13.60;;;6.25;;
48006;SDS011;33771;48.180;11.400;2022-07-19T05:28:22;15.05;;;6.25;;
48006;SDS011;33771;48.180;11.400;2022-07-19T05:30:48;15.55;;;6.40;;
48006;SDS011;33771;48.180;11.400;2022-07-19T05:33:13;21.15;;;6.82;;
48006;SDS011;33771;48.180;11.400;2022-07-19T05:35:41;21.42;;;7.10;;
48006;SDS011;33771;48.180;11.400;2022-07-19T05:38:07;14.10;;;6.55;;
48006;SDS011;33771;48.180;11.400;2022-07-19T05:40:32;25.80;;;6.30;;
48006;SDS011;33771;48.180;11.400;2022-07-19T05:42:58;13.43;;;5.63;;
48006;SDS011;33771;48.180;11.400;2022-07-19T05:45:24;12.90;;;5.65;;
48006;SDS011;33771;48.180;11.400;2022-07-19T05:47:51;20.90;;;6.30;;
48006;SDS011;33771;48.180;11.400;2022-07-19T05:50:17;18.80;;;5.72;;
48006;SDS011;33771;48.180;11.400;2022-07-19T05:52:42;15.60;;;5.57;;
48006;SDS011;33771;48.180;11.400;2022-07-19T05:55:08;12.77;;;5.03;;
48006;SDS011;33771;48.180;11.400;2022-07-19T05:57:34;14.07;;;4.82;;
48006;SDS011;33771;48.180;11.400;2022-07-19T05:59:59;11.82;;;4.53;;
48006;SDS011;33771;48.180;11.400;2022-07-19T06:02:25;16.17;;;5.03;;
48006;SDS011;33771;48.180;11.400;2022-07-19T06:04:50;13.02;;;4.50;;
48006;SDS011;33771;48.180;11.400;2022-07-19T06:07:16;15.52;;;4.65;;
48006;SDS011;33771;48.180;11.400;2022-07-19T06:09:43;10.70;;;4.15;;
48006;SDS011;33771;48.180;11.400;2022-07-19T06:12:08;13.65;;;4.25;;
48006;SDS011;33771;48.180;11.400;2022-07-19T06:14:34;10.88;;;3.70;;
48006;SDS011;33771;48.180;11.400;2022-07-19T06:16:59;13.45;;;3.75;;
48006;SDS011;33771;48.180;11.400;2022-07-19T06:19:25;14.90;;;4.28;;
48006;SDS011;33771;48.180;11.400;2022-07-19T06:21:51;11.20;;;4.07;;
48006;SDS011;33771;48.180;11.400;2022-07-19T06:24:17;14.25;;;3.83;;
48006;SDS011;33771;48.180;11.400;2022-07-19T06:26:43;11.40;;;3.30;;
48006;SDS011;33771;48.180;11.400;2022-07-19T06:29:09;10.35;;;3.40;;
48006;SDS011;33771;48.180;11.400;2022-07-19T06:31:34;13.98;;;3.40;;
48006;SDS011;33771;48.180;11.400;2022-07-19T06:34:00;18.50;;;3.90;;
48006;SDS011;33771;48.180;11.400;2022-07-19T06:36:26;10.77;;;3.05;;
48006;SDS011;33771;48.180;11.400;2022-07-19T06:38:52;10.35;;;3.05;;
48006;SDS011;33771;48.180;11.400;2022-07-19T06:41:17;3.17;;;2.45;;
48006;SDS011;33771;48.180;11.400;2022-07-19T06:43:43;7.72;;;2.30;;
48006;SDS011;33771;48.180;11.400;2022-07-19T06:46:09;13.23;;;2.83;;
48006;SDS011;33771;48.180;11.400;2022-07-19T06:48:35;9.52;;;2.92;;
48006;SDS011;33771;48.180;11.400;2022-07-19T06:51:01;7.22;;;2.20;;
48006;SDS011;33771;48.180;11.400;2022-07-19T06:53:27;8.48;;;2.13;;
48006;SDS011;33771;48.180;11.400;2022-07-19T06:55:53;9.88;;;2.40;;
48006;SDS011;33771;48.180;11.400;2022-07-19T06:58:18;8.95;;;2.40;;
48006;SDS011;33771;48.180;11.400;2022-07-19T07:00:44;6.53;;;2.20;;
48006;SDS011;33771;48.180;11.400;2022-07-19T07:03:10;5.53;;;2.10;;
48006;SDS011;33771;48.180;11.400;2022-07-19T07:05:36;5.85;;;2.10;;
48006;SDS011;33771;48.180;11.400;2022-07-19T07:08:02;5.63;;;2.25;;
48006;SDS011;33771;48.180;11.400;2022-07-19T07:10:28;6.35;;;2.35;;
48006;SDS011;33771;48.180;11.400;2022-07-19T07:12:53;7.32;;;2.70;;
48006;SDS011;33771;48.180;11.400;2022-07-19T07:15:19;8.57;;;2.17;;
48006;SDS011;33771;48.180;11.400;2022-07-19T07:17:44;7.10;;;2.58;;
48006;SDS011;33771;48.180;11.400;2022-07-19T07:20:10;5.90;;;2.05;;
48006;SDS011;33771;48.180;11.400;2022-07-19T07:22:36;6.95;;;2.05;;
48006;SDS011;33771;48.180;11.400;2022-07-19T07:25:02;5.43;;;2.30;;
48006;SDS011;33771;48.180;11.400;2022-07-19T07:27:29;9.50;;;2.35;;
48006;SDS011;33771;48.180;11.400;2022-07-19T07:29:54;5.95;;;1.80;;
48006;SDS011;33771;48.180;11.400;2022-07-19T07:32:20;6.07;;;2.08;;
48006;SDS011;33771;48.180;11.400;2022-07-19T07:34:46;9.60;;;2.45;;
48006;SDS011;33771;48.180;11.400;2022-07-19T07:37:11;7.30;;;2.08;;
48006;SDS011;33771;48.180;11.400;2022-07-19T07:39:37;10.25;;;2.20;;
48006;SDS011;33771;48.180;11.400;2022-07-19T07:42:04;10.80;;;2.35;;
48006;SDS011;33771;48.180;11.400;2022-07-19T07:44:30;8.15;;;3.00;;
48006;SDS011;33771;48.180;11.400;2022-07-19T07:46:56;6.85;;;2.33;;
48006;SDS011;33771;48.180;11.400;2022-07-19T07:49:22;6.85;;;2.22;;
48006;SDS011;33771;48.180;11.400;2022-07-19T07:51:47;4.85;;;1.80;;
48006;SDS011;33771;48.180;11.400;2022-07-19T07:54:13;5.78;;;2.03;;
48006;SDS011;33771;48.180;11.400;2022-07-19T07:56:39;6.60;;;2.22;;
48006;SDS011;33771;48.180;11.400;2022-07-19T07:59:05;7.10;;;2.40;;
48006;SDS011;33771;48.180;11.400;2022-07-19T08:01:30;6.35;;;1.90;;
48006;SDS011;33771;48.180;11.400;2022-07-19T08:03:56;8.07;;;1.85;;
48006;SDS011;33771;48.180;11.400;2022-07-19T08:06:22;4.35;;;1.90;;
48006;SDS011;33771;48.180;11.400;2022-07-19T08:08:48;7.60;;;1.67;;
48006;SDS011;33771;48.180;11.400;2022-07-19T08:11:13;4.38;;;1.80;;
48006;SDS011;33771;48.180;11.400;2022-07-19T08:13:39;5.75;;;1.98;;
48006;SDS011;33771;48.180;11.400;2022-07-19T08:16:05;6.70;;;2.03;;
48006;SDS011;33771;48.180;11.400;2022-07-19T08:18:31;7.18;;;1.85;;
48006;SDS011;33771;48.180;11.400;2022-07-19T08:20:57;5.38;;;2.08;;
48006;SDS011;33771;48.180;11.400;2022-07-19T08:23:22;9.10;;;1.70;;
48006;SDS011;33771;48.180;11.400;2022-07-19T08:25:48;5.13;;;2.00;;
48006;SDS011;33771;48.180;11.400;2022-07-19T08:28:13;8.00;;;2.28;;
48006;SDS011;33771;48.180;11.400;2022-07-19T08:30:39;6.47;;;1.95;;
48006;SDS011;33771;48.180;11.400;2022-07-19T08:33:05;5.32;;;1.63;;
48006;SDS011;33771;48.180;11.400;2022-07-19T08:35:33;5.63;;;1.95;;
48006;SDS011;33771;48.180;11.400;2022-07-19T08:37:59;9.48;;;2.30;;
48006;SDS011;33771;48.180;11.400;2022-07-19T08:40:25;15.30;;;2.30;;
48006;SDS011;33771;48.180;11.400;2022-07-19T08:42:51;8.13;;;1.98;;
48006;SDS011;33771;48.180;11.400;2022-07-19T08:45:18;4.15;;;1.98;;
48006;SDS011;33771;48.180;11.400;2022-07-19T08:47:47;7.30;;;1.92;;
48006;SDS011;33771;48.180;11.400;2022-07-19T08:50:13;4.30;;;1.73;;
48006;SDS011;33771;48.180;11.400;2022-07-19T08:52:39;13.50;;;2.05;;
48006;SDS011;33771;48.180;11.400;2022-07-19T08:55:05;4.20;;;2.10;;
48006;SDS011;33771;48.180;11.400;2022-07-19T08:57:31;9.32;;;1.95;;
48006;SDS011;33771;48.180;11.400;2022-07-19T09:00:15;5.05;;;2.00;;
48006;SDS011;33771;48.180;11.400;2022-07-19T09:02:54;4.57;;;1.90;;
48006;SDS011;33771;48.180;11.400;2022-07-19T09:05:22;4.95;;;1.58;;
48006;SDS011;33771;48.180;11.400;2022-07-19T09:10:40;5.57;;;1.80;;
48006;SDS011;33771;48.180;11.400;2022-07-19T09:13:09;11.32;;;2.13;;
48006;SDS011;33771;48.180;11.400;2022-07-19T09:15:59;7.15;;;1.85;;
48006;SDS011;33771;48.180;11.400;2022-07-19T09:18:31;5.07;;;1.75;;
48006;SDS011;33771;48.180;11.400;2022-07-19T09:20:59;4.45;;;1.80;;
48006;SDS011;33771;48.180;11.400;2022-07-19T09:23:27;6.57;;;2.20;;
48006;SDS011;33771;48.180;11.400;2022-07-19T09:25:54;5.45;;;1.80;;
48006;SDS011;33771;48.180;11.400;2022-07-19T09:28:22;5.05;;;1.70;;
48006;SDS011;33771;48.180;11.400;2022-07-19T09:30:50;7.72;;;1.80;;
48006;SDS011;33771;48.180;11.400;2022-07-19T09:33:19;5.03;;;1.48;;
48006;SDS011;33771;48.180;11.400;2022-07-19T09:35:49;8.10;;;2.00;;
48006;SDS011;33771;48.180;11.400;2022-07-19T09:38:18;5.40;;;1.90;;
48006;SDS011;33771;48.180;11.400;2022-07-19T09:40:49;4.07;;;2.28;;
48006;SDS011;33771;48.180;11.400;2022-07-19T09:43:18;9.02;;;1.55;;
48006;SDS011;33771;48.180;11.400;2022-07-19T09:45:47;4.70;;;1.70;;
48006;SDS011;33771;48.180;11.400;2022-07-19T09:48:13;8.88;;;1.50;;
48006;SDS011;33771;48.180;11.400;2022-07-19T09:50:38;4.72;;;1.77;;
48006;SDS011;33771;48.180;11.400;2022-07-19T09:53:04;5.38;;;1.80;;
48006;SDS011;33771;48.180;11.400;2022-07-19T09:55:31;3.72;;;1.40;;
48006;SDS011;33771;48.180;11.400;2022-07-19T09:57:57;4.85;;;1.63;;
48006;SDS011;33771;48.180;11.400;2022-07-19T10:00:24;6.13;;;1.50;;
48006;SDS011;33771;48.180;11.400;2022-07-19T10:02:57;7.07;;;2.63;;
48006;SDS011;33771;48.180;11.400;2022-07-19T10:05:24;4.82;;;1.50;;
48006;SDS011;33771;48.180;11.400;2022-07-19T10:07:51;8.88;;;1.70;;
48006;SDS011;33771;48.180;11.400;2022-07-19T10:10:18;3.83;;;1.50;;
48006;SDS011;33771;48.180;11.400;2022-07-19T10:12:45;5.22;;;1.92;;
48006;SDS011;33771;48.180;11.400;2022-07-19T10:15:13;7.40;;;1.90;;
48006;SDS011;33771;48.180;11.400;2022-07-19T10:20:10;4.18;;;1.45;;
48006;SDS011;33771;48.180;11.400;2022-07-19T10:22:40;5.65;;;1.70;;
48006;SDS011;33771;48.180;11.400;2022-07-19T10:25:13;5.05;;;1.60;;
48006;SDS011;33771;48.180;11.400;2022-07-19T10:27:41;7.90;;;1.90;;
48006;SDS011;33771;48.180;11.400;2022-07-19T10:32:43;17.75;;;1.98;;
48006;SDS011;33771;48.180;11.400;2022-07-19T10:45:34;4.10;;;1.50;;
48006;SDS011;33771;48.180;11.400;2022-07-19T10:48:01;4.55;;;1.50;;
48006;SDS011;33771;48.180;11.400;2022-07-19T10:50:45;6.13;;;2.05;;
48006;SDS011;33771;48.180;11.400;2022-07-19T10:53:14;8.30;;;1.73;;
48006;SDS011;33771;48.180;11.400;2022-07-19T10:58:48;6.95;;;1.80;;
48006;SDS011;33771;48.180;11.400;2022-07-19T11:01:20;5.68;;;1.77;;
48006;SDS011;33771;48.180;11.400;2022-07-19T11:03:47;5.55;;;1.92;;
48006;SDS011;33771;48.180;11.400;2022-07-19T11:06:21;6.13;;;2.40;;
48006;SDS011;33771;48.180;11.400;2022-07-19T11:08:52;6.55;;;2.25;;
48006;SDS011;33771;48.180;11.400;2022-07-19T11:11:23;4.18;;;1.80;;
48006;SDS011;33771;48.180;11.400;2022-07-19T11:13:52;8.00;;;1.90;;
48006;SDS011;33771;48.180;11.400;2022-07-19T11:16:19;7.20;;;1.77;;
48006;SDS011;33771;48.180;11.400;2022-07-19T11:18:46;4.43;;;2.10;;
48006;SDS011;33771;48.180;11.400;2022-07-19T11:21:13;5.25;;;2.05;;
48006;SDS011;33771;48.180;11.400;2022-07-19T11:23:40;6.93;;;1.90;;
48006;SDS011;33771;48.180;11.400;2022-07-19T11:28:41;7.75;;;1.88;;
48006;SDS011;33771;48.180;11.400;2022-07-19T11:33:53;5.97;;;2.10;;
48006;SDS011;33771;48.180;11.400;2022-07-19T11:36:23;4.32;;;2.08;;
48006;SDS011;33771;48.180;11.400;2022-07-19T11:38:50;4.35;;;2.10;;
48006;SDS011;33771;48.180;11.400;2022-07-19T11:41:26;4.65;;;2.03;;
48006;SDS011;33771;48.180;11.400;2022-07-19T11:43:57;5.07;;;2.28;;
48006;SDS011;33771;48.180;11.400;2022-07-19T11:46:33;6.78;;;1.90;;
48006;SDS011;33771;48.180;11.400;2022-07-19T11:49:04;7.65;;;2.00;;
48006;SDS011;33771;48.180;11.400;2022-07-19T11:51:32;4.88;;;1.88;;
48006;SDS011;33771;48.180;11.400;2022-07-19T11:53:59;5.70;;;2.10;;
48006;SDS011;33771;48.180;11.400;2022-07-19T11:56:27;5.78;;;2.30;;
48006;SDS011;33771;48.180;11.400;2022-07-19T11:58:55;4.90;;;2.20;;
48006;SDS011;33771;48.180;11.400;2022-07-19T12:01:26;4.18;;;1.80;;
48006;SDS011;33771;48.180;11.400;2022-07-19T12:04:17;6.38;;;1.90;;
48006;SDS011;33771;48.180;11.400;2022-07-19T12:06:43;7.75;;;2.58;;
48006;SDS011;33771;48.180;11.400;2022-07-19T12:09:11;5.47;;;1.90;;
48006;SDS011;33771;48.180;11.400;2022-07-19T12:11:44;7.03;;;2.10;;
48006;SDS011;33771;48.180;11.400;2022-07-19T12:17:09;4.57;;;2.42;;
48006;SDS011;33771;48.180;11.400;2022-07-19T12:19:41;5.60;;;2.60;;
48006;SDS011;33771;48.180;11.400;2022-07-19T12:24:58;5.05;;;2.20;;
48006;SDS011;33771;48.180;11.400;2022-07-19T12:27:23;8.98;;;2.65;;
48006;SDS011;33771;48.180;11.400;2022-07-19T12:29:52;6.65;;;2.40;;
48006;SDS011;33771;48.180;11.400;2022-07-19T12:32:29;4.43;;;2.35;;
48006;SDS011;33771;48.180;11.400;2022-07-19T12:34:56;5.72;;;2.70;;
48006;SDS011;33771;48.180;11.400;2022-07-19T12:37:26;11.48;;;2.78;;
48006;SDS011;33771;48.180;11.400;2022-07-19T12:47:48;5.55;;;2.40;;
48006;SDS011;33771;48.180;11.400;2022-07-19T12:50:23;6.63;;;2.45;;
48006;SDS011;33771;48.180;11.400;2022-07-19T12:52:55;8.40;;;2.80;;
48006;SDS011;33771;48.180;11.400;2022-07-19T12:55:22;5.57;;;2.67;;
48006;SDS011;33771;48.180;11.400;2022-07-19T12:57:49;6.25;;;3.25;;
48006;SDS011;33771;48.180;11.400;2022-07-19T13:00:16;8.65;;;2.88;;
48006;SDS011;33771;48.180;11.400;2022-07-19T13:02:44;7.90;;;3.30;;
48006;SDS011;33771;48.180;11.400;2022-07-19T13:05:10;5.00;;;3.20;;
48006;SDS011;33771;48.180;11.400;2022-07-19T13:07:36;9.43;;;3.25;;
48006;SDS011;33771;48.180;11.400;2022-07-19T13:10:02;7.40;;;3.10;;
48006;SDS011;33771;48.180;11.400;2022-07-19T13:12:28;12.77;;;3.38;;
48006;SDS011;33771;48.180;11.400;2022-07-19T13:14:54;8.75;;;3.47;;
48006;SDS011;33771;48.180;11.400;2022-07-19T13:17:20;5.75;;;3.42;;
48006;SDS011;33771;48.180;11.400;2022-07-19T13:19:45;6.53;;;3.67;;
48006;SDS011;33771;48.180;11.400;2022-07-19T13:22:11;7.75;;;3.45;;
48006;SDS011;33771;48.180;11.400;2022-07-19T13:24:38;7.60;;;3.75;;
48006;SDS011;33771;48.180;11.400;2022-07-19T13:27:04;7.50;;;3.63;;
48006;SDS011;33771;48.180;11.400;2022-07-19T13:29:29;8.00;;;3.85;;
48006;SDS011;33771;48.180;11.400;2022-07-19T13:31:55;6.78;;;3.80;;
48006;SDS011;33771;48.180;11.400;2022-07-19T13:34:23;7.93;;;3.70;;
48006;SDS011;33771;48.180;11.400;2022-07-19T13:36:49;8.52;;;3.70;;
48006;SDS011;33771;48.180;11.400;2022-07-19T13:39:15;9.88;;;3.97;;
48006;SDS011;33771;48.180;11.400;2022-07-19T13:41:41;8.15;;;3.90;;
48006;SDS011;33771;48.180;11.400;2022-07-19T13:44:07;11.15;;;3.30;;
48006;SDS011;33771;48.180;11.400;2022-07-19T13:46:33;8.32;;;3.60;;
48006;SDS011;33771;48.180;11.400;2022-07-19T13:49:09;5.07;;;3.33;;
48006;SDS011;33771;48.180;11.400;2022-07-19T13:51:38;7.47;;;3.75;;
48006;SDS011;33771;48.180;11.400;2022-07-19T13:54:04;8.35;;;4.45;;
48006;SDS011;33771;48.180;11.400;2022-07-19T13:56:29;10.32;;;4.63;;
48006;SDS011;33771;48.180;11.400;2022-07-19T13:58:55;6.50;;;4.45;;
48006;SDS011;33771;48.180;11.400;2022-07-19T14:01:20;11.48;;;4.80;;
48006;SDS011;33771;48.180;11.400;2022-07-19T14:03:46;10.02;;;4.93;;
48006;SDS011;33771;48.180;11.400;2022-07-19T14:06:13;9.25;;;4.72;;
48006;SDS011;33771;48.180;11.400;2022-07-19T14:08:39;9.18;;;4.80;;
48006;SDS011;33771;48.180;11.400;2022-07-19T14:11:05;9.23;;;4.28;;
48006;SDS011;33771;48.180;11.400;2022-07-19T14:13:30;8.55;;;4.53;;
48006;SDS011;33771;48.180;11.400;2022-07-19T14:15:56;10.35;;;5.13;;
48006;SDS011;33771;48.180;11.400;2022-07-19T14:18:21;10.63;;;4.80;;
48006;SDS011;33771;48.180;11.400;2022-07-19T14:20:47;11.80;;;5.38;;
48006;SDS011;33771;48.180;11.400;2022-07-19T14:23:13;12.93;;;5.35;;
48006;SDS011;33771;48.180;11.400;2022-07-19T14:25:39;7.55;;;4.60;;
48006;SDS011;33771;48.180;11.400;2022-07-19T14:28:06;10.85;;;4.40;;
48006;SDS011;33771;48.180;11.400;2022-07-19T14:30:32;10.18;;;4.22;;
48006;SDS011;33771;48.180;11.400;2022-07-19T14:32:59;11.40;;;5.15;;
48006;SDS011;33771;48.180;11.400;2022-07-19T14:35:25;11.45;;;4.88;;
48006;SDS011;33771;48.180;11.400;2022-07-19T14:37:51;9.63;;;4.28;;
48006;SDS011;33771;48.180;11.400;2022-07-19T14:40:17;9.80;;;4.82;;
48006;SDS011;33771;48.180;11.400;2022-07-19T14:42:43;10.68;;;3.95;;
48006;SDS011;33771;48.180;11.400;2022-07-19T14:45:08;9.40;;;4.47;;
48006;SDS011;33771;48.180;11.400;2022-07-19T14:47:35;13.73;;;4.65;;
48006;SDS011;33771;48.180;11.400;2022-07-19T14:50:02;8.73;;;3.83;;
48006;SDS011;33771;48.180;11.400;2022-07-19T14:52:29;11.90;;;4.50;;
48006;SDS011;33771;48.180;11.400;2022-07-19T14:54:55;8.27;;;4.07;;
48006;SDS011;33771;48.180;11.400;2022-07-19T14:57:20;9.20;;;3.85;;
48006;SDS011;33771;48.180;11.400;2022-07-19T14:59:46;11.60;;;4.22;;
48006;SDS011;33771;48.180;11.400;2022-07-19T15:02:12;6.07;;;4.13;;
48006;SDS011;33771;48.180;11.400;2022-07-19T15:04:38;10.30;;;4.80;;
48006;SDS011;33771;48.180;11.400;2022-07-19T15:07:04;10.82;;;4.68;;
48006;SDS011;33771;48.180;11.400;2022-07-19T15:09:29;10.35;;;4.47;;